createdAt,value
2019-02-02T10:18:22.802Z,16.58
2019-02-02T10:19:22.873Z,17.28
2019-02-02T10:20:23.015Z,17.69
2019-02-02T10:21:41.464Z,18.61
2019-02-02T10:22:41.742Z,20.91
2019-02-02T10:23:41.625Z,24.22
2019-02-02T10:24:59.026Z,24.75
2019-02-02T10:25:59.124Z,24.56
2019-02-02T10:26:59.251Z,26.35
2019-02-02T10:27:59.260Z,25.28
2019-02-02T10:28:59.522Z,24.13
2019-02-02T10:29:59.395Z,23.61
2019-02-02T10:30:54.847Z,23.68
2019-02-02T10:31:54.956Z,24.08
2019-02-02T10:33:07.188Z,24.10
2019-02-02T10:34:05.052Z,23.70
2019-02-02T10:35:05.243Z,23.49
2019-02-02T10:35:57.781Z,23.20
2019-02-02T10:37:04.196Z,23.02
2019-02-02T10:38:16.239Z,22.82
2019-02-02T10:39:04.157Z,22.93
2019-02-02T10:40:10.695Z,22.77
2019-02-02T10:41:06.665Z,22.83
2019-02-02T10:42:07.609Z,22.74
2019-02-02T10:43:02.010Z,22.80
2019-02-02T10:44:08.844Z,22.77
2019-02-02T10:45:08.952Z,22.96
2019-02-02T10:46:10.847Z,22.84
2019-02-02T10:47:09.192Z,22.99
2019-02-02T10:48:09.412Z,23.01
2019-02-02T10:49:09.564Z,23.71
2019-02-02T10:50:09.572Z,24.87
2019-02-02T10:51:09.703Z,25.65
2019-02-02T10:52:09.753Z,26.39
2019-02-02T10:53:09.859Z,26.89
2019-02-02T10:54:10.058Z,27.04
2019-02-02T10:55:10.045Z,27.43
2019-02-02T10:56:10.119Z,27.57
2019-02-02T10:56:55.004Z,27.48
2019-02-02T10:57:54.482Z,27.61
2019-02-02T10:58:39.114Z,27.71
2019-02-02T10:59:29.740Z,27.74
2019-02-02T11:00:29.620Z,27.79
2019-02-02T11:01:29.750Z,28.09
2019-02-02T11:02:29.893Z,28.23
2019-02-02T11:03:30.096Z,28.17
2019-02-02T11:04:30.188Z,28.28
2019-02-02T11:05:30.384Z,28.31
2019-02-02T11:06:30.490Z,28.40
2019-02-02T11:07:30.712Z,28.46
2019-02-02T11:08:24.846Z,28.58
2019-02-02T11:09:24.882Z,28.62
2019-02-02T11:10:24.976Z,28.68
2019-02-02T11:11:25.051Z,28.82
2019-02-02T11:12:25.175Z,28.95
